Time;durP1;ratioP1;P1;durP2;ratioP2;P2;SDS_P1;SDS_P2;PMS_P1;PMS_P2;Temp;Humidity;BMP_temperature;BMP_pressure;BME280_temperature;BME280_humidity;BME280_pressure;Samples;Min_cycle;Max_cycle;Signal;HPM_P1;HPM_P2
2021/04/27 00:01:09;;;;;;;10.68;6.70;;;5.00;55.00;;;3.99;38.97;94521.34;4998296;28;20216;-79
2021/04/27 00:03:36;;;;;;;8.45;6.45;;;5.00;55.00;;;4.03;39.31;94521.00;5019302;28;20229;-79
2021/04/27 00:06:03;;;;;;;7.85;6.10;;;5.00;55.00;;;3.97;39.27;94523.28;4982689;28;20232;-79
2021/04/27 00:08:30;;;;;;;8.27;5.97;;;4.90;55.00;;;3.96;38.86;94523.44;4958288;28;20234;-79
2021/04/27 00:10:58;;;;;;;9.50;6.10;;;4.90;54.90;;;3.91;38.98;94515.34;5007869;28;20237;-79
2021/04/27 00:13:26;;;;;;;9.15;6.18;;;4.80;54.90;;;3.89;38.92;94523.25;4988695;28;20689;-79
2021/04/27 00:15:54;;;;;;;9.95;6.63;;;4.80;55.00;;;3.88;39.30;94521.63;4975110;28;20217;-79
2021/04/27 00:18:21;;;;;;;13.90;6.57;;;4.80;55.10;;;3.86;39.03;94518.41;5004864;28;20269;-79
2021/04/27 00:20:47;;;;;;;8.82;6.22;;;4.80;55.10;;;3.84;39.01;94518.56;4973889;28;20198;-79
2021/04/27 00:23:14;;;;;;;9.38;5.88;;;4.70;55.30;;;3.84;39.03;94526.34;4992541;28;20235;-79
2021/04/27 00:25:42;;;;;;;8.23;5.68;;;4.70;55.40;;;3.80;38.98;94514.66;4984882;28;20209;-79
2021/04/27 00:28:09;;;;;;;7.82;5.70;;;4.70;55.30;;;3.84;39.00;94515.16;4996352;28;20234;-79
2021/04/27 00:30:36;;;;;;;9.07;6.30;;;4.70;55.40;;;3.83;39.52;94513.53;5008238;28;20765;-79
2021/04/27 00:33:04;;;;;;;7.90;6.07;;;4.70;55.40;;;3.80;39.09;94504.28;5021594;28;20499;-79
2021/04/27 00:35:31;;;;;;;9.10;5.85;;;4.70;55.60;;;3.82;39.38;94509.31;5017181;28;20629;-79
2021/04/27 00:37:59;;;;;;;9.07;6.18;;;4.70;55.80;;;3.84;39.28;94518.56;5023088;28;20212;-79
2021/04/27 00:40:27;;;;;;;9.38;6.20;;;4.70;55.70;;;3.85;39.33;94524.56;5025812;28;20205;-78
2021/04/27 00:42:55;;;;;;;9.35;6.18;;;4.70;55.70;;;3.84;39.25;94521.16;5015233;28;20274;-78
2021/04/27 00:45:25;;;;;;;8.05;6.10;;;4.70;55.80;;;3.81;39.53;94521.47;5009063;28;20199;-79
2021/04/27 00:47:54;;;;;;;9.30;6.03;;;4.70;55.90;;;3.83;39.57;94521.31;5020273;28;20231;-79
2021/04/27 00:50:34;;;;;;;7.95;5.53;;;4.70;55.90;;;3.79;39.74;94522.59;4994997;28;20221;-79
2021/04/27 00:53:02;;;;;;;9.02;6.47;;;4.70;56.20;;;3.80;39.67;94530.22;4981619;28;20265;-78
2021/04/27 00:55:30;;;;;;;8.35;5.97;;;4.70;56.10;;;3.77;39.80;94517.59;4964954;28;20218;-79
2021/04/27 00:57:59;;;;;;;10.57;7.10;;;4.70;56.20;;;3.77;40.17;94520.19;4974164;28;20229;-79
2021/04/27 01:00:31;;;;;;;8.60;6.13;;;4.70;56.30;;;3.76;39.97;94521.16;4958600;28;20561;-79
2021/04/27 01:02:58;;;;;;;8.40;6.22;;;4.70;56.50;;;3.76;39.96;94523.75;4981558;28;20327;-78
2021/04/27 01:05:28;;;;;;;8.18;5.75;;;4.60;56.30;;;3.74;39.93;94525.66;4987743;28;20212;-79
2021/04/27 01:08:26;;;;;;;8.95;5.65;;;4.60;56.60;;;3.71;39.99;94528.59;5013885;28;20231;-79
2021/04/27 01:11:19;;;;;;;9.27;5.70;;;4.60;57.40;;;3.61;39.81;94512.34;5017926;28;20570;-79
2021/04/27 01:14:15;;;;;;;7.45;5.90;;;4.60;57.30;;;3.62;39.80;94522.56;4990340;28;20229;-79
2021/04/27 01:16:58;;;;;;;6.88;5.18;;;4.50;57.20;;;3.58;39.75;94521.25;4999409;28;20204;-79
2021/04/27 01:19:43;;;;;;;8.00;5.40;;;4.50;57.30;;;3.54;40.19;94525.16;4994030;28;20261;-79
2021/04/27 01:22:15;;;;;;;10.68;6.10;;;4.50;56.90;;;3.51;39.90;94521.06;4992169;28;20228;-79
2021/04/27 01:24:55;;;;;;;9.55;6.05;;;4.50;56.60;;;3.50;39.95;94518.63;4989231;28;20197;-79
2021/04/27 01:27:24;;;;;;;10.70;6.20;;;4.50;57.60;;;3.45;40.33;94520.91;4973828;28;20379;-78
2021/04/27 01:29:51;;;;;;;9.85;6.15;;;4.50;56.60;;;3.46;40.37;94525.91;4958783;28;20702;-79
2021/04/27 01:32:20;;;;;;;9.55;5.63;;;4.40;56.70;;;3.43;40.04;94521.06;4984245;28;20230;-79
2021/04/27 01:34:53;;;;;;;7.90;5.43;;;4.40;56.90;;;3.40;40.24;94523.97;5023696;28;20254;-79
2021/04/27 01:37:47;;;;;;;6.47;5.20;;;4.40;56.80;;;3.36;40.00;94526.03;5007539;28;20303;-79
2021/04/27 01:40:14;;;;;;;7.30;5.68;;;4.30;56.60;;;3.34;40.32;94528.00;5012332;28;20200;-79
2021/04/27 01:42:41;;;;;;;8.32;5.55;;;4.30;56.90;;;3.27;40.40;94519.22;5029236;28;20217;-78
2021/04/27 01:45:09;;;;;;;8.75;5.40;;;4.30;56.90;;;3.29;40.13;94521.66;5025155;28;20402;-79
2021/04/27 01:47:37;;;;;;;8.43;5.57;;;4.30;57.00;;;3.28;40.14;94520.03;5014045;28;20286;-79
2021/04/27 01:50:05;;;;;;;10.75;5.38;;;4.20;56.90;;;3.24;40.38;94508.38;5016256;28;20202;-79
2021/04/27 01:52:55;;;;;;;7.43;5.30;;;4.20;57.10;;;3.17;40.36;94503.81;5039628;28;20213;-79
2021/04/27 01:55:23;;;;;;;11.63;5.30;;;4.20;56.90;;;3.19;40.50;94514.00;5029010;28;20219;-79
2021/04/27 01:57:50;;;;;;;10.07;5.57;;;4.20;57.10;;;3.17;40.39;94514.16;5015347;28;20719;-78
2021/04/27 02:00:23;;;;;;;9.18;5.28;;;4.10;57.00;;;3.14;40.46;94503.31;5022706;28;20204;-79
2021/04/27 02:02:51;;;;;;;9.07;6.28;;;4.10;57.40;;;3.12;40.26;94508.63;5028823;28;20227;-78
2021/04/27 02:05:38;;;;;;;8.05;5.07;;;4.10;57.30;;;3.08;40.41;94493.56;5022299;28;20581;-78
2021/04/27 02:08:25;;;;;;;11.07;5.68;;;4.10;57.30;;;3.06;40.34;94505.84;5021724;28;20315;-79
2021/04/27 02:10:57;;;;;;;8.55;5.30;;;4.10;57.20;;;3.02;40.63;94497.56;4998311;28;20737;-79
2021/04/27 02:13:25;;;;;;;6.40;4.93;;;4.00;57.30;;;3.00;40.74;94499.50;4984935;28;20315;-78
2021/04/27 02:16:05;;;;;;;9.38;5.55;;;4.00;57.30;;;2.96;40.89;94493.81;5000789;28;20915;-79
2021/04/27 02:18:43;;;;;;;7.20;5.07;;;4.00;57.40;;;2.96;40.99;94506.78;5018314;28;20625;-79
2021/04/27 02:21:16;;;;;;;11.52;4.95;;;3.90;57.90;;;2.95;40.49;94499.16;5003074;28;20268;-79
2021/04/27 02:24:23;;;;;;;9.75;4.93;;;3.90;57.80;;;2.89;40.77;94495.41;5003387;28;20205;-78
2021/04/27 02:26:55;;;;;;;9.38;5.68;;;4.00;57.70;;;2.90;41.10;94504.81;4996986;28;20328;-79
2021/04/27 02:29:30;;;;;;;7.85;5.55;;;3.90;57.90;;;2.88;40.44;94499.78;4993089;28;20213;-79
2021/04/27 02:32:01;;;;;;;7.72;5.00;;;3.90;57.90;;;2.86;40.78;94493.13;5014652;28;20231;-79
2021/04/27 02:34:31;;;;;;;10.90;5.68;;;3.80;58.30;;;2.85;40.85;94500.06;5020427;28;20218;-78
2021/04/27 02:36:58;;;;;;;9.02;5.30;;;3.80;57.70;;;2.85;40.82;94499.28;5001426;28;20294;-79
2021/04/27 02:39:31;;;;;;;7.22;4.97;;;3.80;57.90;;;2.81;40.90;94501.38;5011313;28;20223;-79
2021/04/27 02:41:59;;;;;;;8.45;5.07;;;3.70;57.80;;;2.82;40.96;94502.16;5020840;28;20231;-78
2021/04/27 02:44:44;;;;;;;7.30;5.22;;;3.80;57.90;;;2.77;40.98;94487.13;5020965;28;20224;-79
2021/04/27 02:47:19;;;;;;;7.75;4.97;;;3.80;57.90;;;2.78;41.18;94491.28;5025909;28;20232;-79
2021/04/27 02:49:46;;;;;;;7.88;4.90;;;3.80;58.10;;;2.73;41.19;94493.53;5014499;28;20216;-79
2021/04/27 02:52:17;;;;;;;6.25;4.97;;;3.70;58.00;;;2.72;41.39;94490.16;4989682;28;20664;-79
2021/04/27 02:55:05;;;;;;;8.88;5.30;;;3.70;58.10;;;2.71;41.25;94498.06;4979944;28;20205;-79
2021/04/27 02:57:34;;;;;;;8.55;4.85;;;3.70;58.10;;;2.71;41.36;94490.28;5035170;28;20245;-78
2021/04/27 03:00:05;;;;;;;7.38;5.10;;;3.70;58.10;;;2.69;41.33;94492.25;5026596;28;20628;-78
2021/04/27 03:02:39;;;;;;;7.32;4.68;;;3.70;58.60;;;2.67;41.44;94484.63;5010423;28;20232;-78
2021/04/27 03:05:08;;;;;;;8.90;5.15;;;3.60;58.30;;;2.64;41.32;94484.13;5008290;28;20204;-78
2021/04/27 03:07:37;;;;;;;6.78;4.82;;;3.60;58.30;;;2.63;41.21;94487.69;5007382;28;20228;-79
2021/04/27 03:10:05;;;;;;;8.30;4.55;;;3.60;58.30;;;2.60;41.12;94487.97;5011914;28;20307;-79
2021/04/27 03:12:32;;;;;;;7.57;4.72;;;3.60;58.30;;;2.55;41.46;94486.66;4965070;28;20223;-78
2021/04/27 03:15:00;;;;;;;7.45;4.82;;;3.60;58.30;;;2.53;41.35;94490.38;4979242;28;20214;-78
2021/04/27 03:17:38;;;;;;;8.43;4.82;;;3.50;58.40;;;2.53;41.38;94493.75;4973838;28;20250;-78
2021/04/27 03:20:09;;;;;;;6.55;4.40;;;3.50;58.40;;;2.50;41.50;94488.06;4999113;28;20205;-79
2021/04/27 03:22:43;;;;;;;7.47;5.07;;;3.50;58.70;;;2.49;41.52;94486.44;4992429;28;20260;-79
2021/04/27 03:25:12;;;;;;;7.57;4.50;;;3.50;58.50;;;2.46;41.54;94481.59;4966676;28;20305;-80
2021/04/27 03:27:44;;;;;;;7.85;4.50;;;3.40;58.60;;;2.44;41.45;94486.94;4999497;28;20221;-79
2021/04/27 03:30:22;;;;;;;7.35;4.47;;;3.40;58.50;;;2.44;41.47;94483.50;4971727;28;20232;-79
2021/04/27 03:32:53;;;;;;;6.70;4.43;;;3.40;58.60;;;2.36;41.55;94479.09;4983348;28;20720;-79
2021/04/27 03:35:20;;;;;;;8.32;5.13;;;3.40;58.50;;;2.38;41.56;94493.50;4999508;28;20205;-79
2021/04/27 03:37:54;;;;;;;6.57;4.00;;;3.30;58.50;;;2.35;41.43;94495.59;4970841;28;20235;-79
2021/04/27 03:40:21;;;;;;;7.90;4.80;;;3.40;58.70;;;2.35;41.86;94500.75;5003684;28;20212;-78
2021/04/27 03:42:48;;;;;;;14.50;8.05;;;3.30;58.70;;;2.33;41.79;94494.91;4974904;28;20667;-81
2021/04/27 03:45:21;;;;;;;14.93;9.13;;;3.30;58.70;;;2.31;41.77;94499.44;5017151;28;20206;-79
2021/04/27 03:47:49;;;;;;;12.07;6.65;;;3.30;59.00;;;2.30;41.83;94495.25;4975740;28;20241;-80
2021/04/27 03:50:19;;;;;;;8.55;5.43;;;3.30;58.90;;;2.30;41.82;94500.41;4996839;28;20216;-79
2021/04/27 03:53:06;;;;;;;6.75;5.15;;;3.20;59.00;;;2.27;41.81;94498.94;5007721;28;20221;-79
2021/04/27 03:55:34;;;;;;;9.02;4.72;;;3.30;58.90;;;2.28;41.90;94502.31;5022570;28;20208;-79
2021/04/27 03:58:01;;;;;;;8.20;4.70;;;3.20;58.90;;;2.28;41.78;94502.31;5020456;28;20236;-79
2021/04/27 04:00:29;;;;;;;52.63;27.77;;;3.20;59.00;;;2.28;42.00;94502.31;5008954;28;20253;-78
2021/04/27 04:02:57;;;;;;;21.48;12.98;;;3.20;59.00;;;2.26;42.02;94504.25;4988611;28;20263;-78
2021/04/27 04:05:24;;;;;;;14.30;8.55;;;3.20;59.00;;;2.28;41.87;94505.72;4980666;28;20262;-79
2021/04/27 04:07:53;;;;;;;13.05;7.38;;;3.20;59.20;;;2.25;42.07;94506.03;5005753;28;20703;-79
2021/04/27 04:10:22;;;;;;;9.20;5.88;;;3.20;59.20;;;2.31;42.35;94513.19;4992360;28;20252;-79
2021/04/27 04:12:49;;;;;;;9.38;5.63;;;3.20;59.20;;;2.33;42.02;94507.84;4949359;28;20317;-80
2021/04/27 04:15:19;;;;;;;8.98;5.90;;;3.20;59.30;;;2.34;42.29;94502.53;4967973;28;20225;-80
2021/04/27 04:17:51;;;;;;;9.02;5.85;;;3.20;59.50;;;2.36;42.31;94505.78;4964072;28;20217;-79
2021/04/27 04:20:22;;;;;;;8.45;5.63;;;3.20;59.30;;;2.37;42.18;94499.66;4969284;28;20219;-79
2021/04/27 04:23:07;;;;;;;7.97;5.10;;;3.20;59.60;;;2.42;42.03;94509.56;4968141;28;20233;-80
2021/04/27 04:25:34;;;;;;;8.73;5.07;;;3.30;59.40;;;2.46;42.13;94513.44;4982896;28;20201;-79
2021/04/27 04:28:02;;;;;;;7.57;5.05;;;3.30;59.50;;;2.51;42.28;94507.81;4994450;28;20236;-79
2021/04/27 04:30:31;;;;;;;7.70;5.20;;;3.30;59.50;;;2.53;42.29;94503.31;4949064;28;20218;-80
2021/04/27 04:33:17;;;;;;;8.48;5.32;;;3.30;59.60;;;2.58;42.29;94508.03;4974663;28;20260;-79
2021/04/27 04:36:03;;;;;;;7.97;5.45;;;3.40;60.60;;;2.61;42.31;94513.69;5004288;28;20220;-80
2021/04/27 04:38:52;;;;;;;9.55;5.20;;;3.40;59.70;;;2.67;42.37;94509.69;5026224;28;20233;-79
2021/04/27 04:41:48;;;;;;;9.43;5.68;;;3.50;59.70;;;2.73;42.38;94509.09;4964489;28;20233;-79
2021/04/27 04:44:44;;;;;;;8.43;5.20;;;3.50;59.60;;;2.79;42.14;94511.06;5004114;28;20212;-79
2021/04/27 04:47:29;;;;;;;7.25;5.22;;;3.50;59.60;;;2.87;42.07;94508.53;4989096;28;20244;-78
2021/04/27 04:50:16;;;;;;;9.75;5.70;;;3.60;59.70;;;2.94;42.12;94516.50;5028678;28;20209;-79
2021/04/27 04:53:01;;;;;;;7.60;4.65;;;3.60;59.70;;;3.03;42.13;94515.56;5032550;28;20658;-78
2021/04/27 04:55:38;;;;;;;7.65;5.10;;;3.70;59.80;;;3.11;42.38;94514.75;5008488;28;20226;-79
2021/04/27 04:58:17;;;;;;;8.88;5.38;;;3.70;59.70;;;3.15;42.27;94510.91;5006883;28;20252;-79
2021/04/27 05:00:52;;;;;;;9.00;5.40;;;3.80;59.80;;;3.28;42.36;94520.03;5007642;28;20663;-79
2021/04/27 05:03:34;;;;;;;7.90;5.43;;;3.90;59.90;;;3.34;42.44;94512.44;5000623;28;20651;-79
2021/04/27 05:06:39;;;;;;;9.68;5.97;;;4.00;59.90;;;3.46;42.17;94514.75;4945374;28;20595;-79
2021/04/27 05:09:24;;;;;;;8.57;5.22;;;4.00;59.80;;;3.56;42.17;94514.63;4944498;28;20214;-79
2021/04/27 05:12:03;;;;;;;11.20;5.25;;;4.10;59.80;;;3.66;42.22;94513.50;4948802;28;20242;-79
2021/04/27 05:14:40;;;;;;;12.02;5.90;;;4.20;60.00;;;3.77;42.51;94524.53;4945819;28;20562;-80
2021/04/27 05:17:11;;;;;;;11.23;6.10;;;4.30;60.10;;;3.88;42.25;94526.81;4937733;28;20222;-80
2021/04/27 05:19:38;;;;;;;8.60;5.50;;;4.40;60.20;;;3.99;42.18;94521.34;4964863;28;20200;-79
2021/04/27 05:22:08;;;;;;;11.02;5.28;;;4.50;60.00;;;4.10;42.18;94521.97;4985536;28;20313;-79
2021/04/27 05:24:38;;;;;;;8.73;5.32;;;4.50;60.00;;;4.18;42.30;94521.19;4959652;28;20214;-80
2021/04/27 05:27:11;;;;;;;11.40;6.65;;;4.60;60.00;;;4.25;41.66;94520.38;4943660;28;20263;-80
2021/04/27 05:29:38;;;;;;;11.65;7.03;;;4.70;60.00;;;4.36;41.90;94529.63;4972932;28;20197;-77
2021/04/27 05:32:06;;;;;;;10.00;6.95;;;4.80;60.00;;;4.43;42.01;94511.59;4991709;28;20226;-79
2021/04/27 05:34:34;;;;;;;11.65;6.70;;;4.90;59.90;;;4.53;42.04;94516.63;4936164;28;20263;-80
2021/04/27 05:37:01;;;;;;;12.90;7.32;;;4.90;59.90;;;4.58;42.59;94516.97;4971527;28;20254;-79
2021/04/27 05:39:28;;;;;;;16.95;7.55;;;5.00;60.00;;;4.72;41.95;94524.06;4989245;28;20255;-79
2021/04/27 05:41:55;;;;;;;15.35;8.13;;;5.10;59.90;;;4.81;42.59;94524.88;4993299;28;20236;-79
2021/04/27 05:44:23;;;;;;;13.55;8.13;;;5.20;59.90;;;4.93;41.84;94517.50;5025057;28;20212;-79
2021/04/27 05:46:50;;;;;;;12.00;7.10;;;5.30;59.90;;;5.03;42.14;94519.94;5008476;28;20718;-80
2021/04/27 05:49:17;;;;;;;14.85;8.20;;;5.40;60.00;;;5.13;42.13;94523.97;4982905;28;20206;-79
2021/04/27 05:51:44;;;;;;;14.55;9.18;;;5.50;59.90;;;5.23;41.94;94523.75;4956365;28;20655;-79
2021/04/27 05:54:10;;;;;;;15.75;8.75;;;5.60;59.70;;;5.31;41.81;94524.72;4983350;28;20579;-79
2021/04/27 05:56:37;;;;;;;14.32;7.03;;;5.70;59.70;;;5.39;41.81;94520.28;4991192;28;20676;-79
2021/04/27 05:59:05;;;;;;;15.85;7.95;;;5.80;59.70;;;5.48;41.60;94526.28;5000983;28;20233;-80
2021/04/27 06:01:32;;;;;;;17.65;8.88;;;5.80;59.50;;;5.54;41.72;94515.19;4984618;28;20257;-79
2021/04/27 06:03:59;;;;;;;14.45;8.05;;;5.90;59.50;;;5.64;41.48;94520.19;4984997;28;20596;-79
2021/04/27 06:06:26;;;;;;;17.70;8.90;;;6.00;59.40;;;5.72;41.42;94517.50;4985857;28;20906;-78
2021/04/27 06:08:53;;;;;;;14.65;8.40;;;6.10;59.40;;;5.83;41.53;94521.53;4984998;28;20210;-80
2021/04/27 06:11:20;;;;;;;12.90;8.00;;;6.20;59.50;;;5.92;41.62;94517.91;5004156;28;20206;-79
2021/04/27 06:13:47;;;;;;;13.20;7.05;;;6.20;59.40;;;6.02;41.46;94517.69;4996305;28;20229;-79
2021/04/27 06:16:14;;;;;;;15.95;7.03;;;6.40;59.40;;;6.12;41.48;94521.88;4986905;28;20288;-79
2021/04/27 06:18:41;;;;;;;14.27;7.90;;;6.40;59.30;;;6.20;41.12;94520.03;4973673;28;20237;-79
2021/04/27 06:21:07;;;;;;;10.85;7.43;;;6.50;59.20;;;6.27;40.96;94516.72;4980937;28;20198;-78
2021/04/27 06:23:34;;;;;;;10.10;6.65;;;6.60;59.20;;;6.32;40.87;94515.19;4972810;28;20645;-79
2021/04/27 06:26:01;;;;;;;13.32;7.63;;;6.70;59.00;;;6.41;41.12;94519.34;4983085;28;20292;-79
2021/04/27 06:28:28;;;;;;;13.93;8.60;;;6.70;59.00;;;6.50;41.26;94514.88;4967913;28;20229;-78
2021/04/27 06:30:54;;;;;;;15.07;7.75;;;6.80;59.00;;;6.58;40.96;94508.81;4979982;28;20665;-78
2021/04/27 06:33:22;;;;;;;14.43;7.65;;;6.90;58.90;;;6.66;41.07;94500.09;5021065;28;20236;-79
2021/04/27 06:35:49;;;;;;;13.68;7.45;;;7.00;58.90;;;6.73;41.03;94501.81;5048141;28;20299;-79
2021/04/27 06:38:18;;;;;;;13.48;7.53;;;7.10;58.90;;;6.83;40.77;94503.34;5038138;28;20223;-78
2021/04/27 06:40:47;;;;;;;12.80;7.22;;;7.10;58.70;;;6.93;40.80;94510.91;5002040;28;20242;-79
2021/04/27 06:43:15;;;;;;;15.18;7.38;;;7.20;58.70;;;6.97;40.78;94510.38;5034143;28;20252;-79
2021/04/27 06:45:42;;;;;;;12.00;7.43;;;7.30;58.70;;;7.05;40.55;94506.88;5038066;28;20811;-80
2021/04/27 06:48:08;;;;;;;11.40;7.13;;;7.40;58.60;;;7.13;40.44;94498.97;5014181;28;20233;-80
2021/04/27 06:50:37;;;;;;;15.35;8.13;;;7.40;58.50;;;7.20;40.28;94510.28;4987854;28;20220;-79
2021/04/27 06:53:05;;;;;;;16.13;7.63;;;7.50;58.50;;;7.29;40.39;94505.78;5032478;28;20255;-79
2021/04/27 06:55:32;;;;;;;15.20;7.13;;;7.60;58.40;;;7.33;40.29;94496.59;5032572;28;20202;-79
2021/04/27 06:58:10;;;;;;;14.77;7.20;;;7.70;58.50;;;7.46;40.13;94501.19;5070083;28;20247;-79
2021/04/27 07:00:39;;;;;;;11.25;7.47;;;7.70;58.30;;;7.53;40.05;94491.63;5051616;28;20211;-79
2021/04/27 07:03:07;;;;;;;12.20;7.50;;;7.80;58.30;;;7.61;40.28;94488.09;5034901;28;20223;-79
2021/04/27 07:05:34;;;;;;;16.30;8.20;;;7.90;58.40;;;7.72;40.26;94489.41;5037966;28;20235;-80
2021/04/27 07:08:01;;;;;;;11.40;7.30;;;8.00;58.40;;;7.83;40.15;94488.13;5054662;28;20219;-79
2021/04/27 07:10:28;;;;;;;15.85;7.40;;;8.00;58.20;;;7.92;40.17;94487.03;5037961;28;20642;-79
2021/04/27 07:12:55;;;;;;;14.50;7.65;;;8.20;58.50;;;8.00;39.74;94489.50;5038886;28;20716;-79
2021/04/27 07:15:22;;;;;;;12.25;6.97;;;8.20;58.10;;;8.08;39.29;94491.19;5037944;28;20684;-80
2021/04/27 07:17:52;;;;;;;12.00;7.72;;;8.30;58.10;;;8.16;39.80;94483.22;5046877;28;20224;-79
2021/04/27 07:20:20;;;;;;;15.32;7.95;;;8.40;58.10;;;8.24;39.67;94482.28;5036202;28;20235;-80
2021/04/27 07:22:47;;;;;;;12.38;7.40;;;8.50;58.00;;;8.31;39.85;94475.31;5037877;28;20285;-79
2021/04/27 07:25:15;;;;;;;15.38;8.38;;;8.60;58.00;;;8.44;39.79;94486.88;5029359;28;20261;-79
2021/04/27 07:27:42;;;;;;;13.00;8.27;;;8.60;58.00;;;8.54;39.38;94482.16;5032150;28;20238;-79
2021/04/27 07:30:12;;;;;;;12.27;7.20;;;8.70;57.80;;;8.64;39.39;94480.03;5053921;28;20215;-79
2021/04/27 07:32:39;;;;;;;12.25;7.55;;;8.80;57.70;;;8.74;39.27;94477.06;5043624;28;20227;-79
2021/04/27 07:35:08;;;;;;;13.23;7.55;;;8.90;57.60;;;8.84;39.13;94481.97;5040928;28;20191;-79
2021/04/27 07:37:36;;;;;;;11.98;7.03;;;9.00;57.70;;;8.94;39.10;94485.03;5026696;28;20673;-79
2021/04/27 07:40:06;;;;;;;13.13;7.57;;;9.20;57.90;;;9.05;39.27;94475.84;5047145;28;20199;-79
2021/04/27 07:42:34;;;;;;;13.88;7.45;;;9.20;57.80;;;9.16;39.18;94479.72;5032083;28;20225;-80
2021/04/27 07:45:02;;;;;;;13.18;7.82;;;9.30;57.70;;;9.26;38.72;94477.59;5034137;28;20536;-79
2021/04/27 07:47:29;;;;;;;12.10;6.93;;;9.40;57.50;;;9.38;38.92;94469.16;5005892;28;20234;-81
2021/04/27 07:49:56;;;;;;;19.33;8.15;;;9.50;58.90;;;9.46;38.68;94479.47;5015889;28;20392;-79
2021/04/27 07:52:25;;;;;;;12.93;8.27;;;9.50;57.30;;;9.54;38.44;94474.03;5025481;28;20223;-79
2021/04/27 07:54:53;;;;;;;14.07;7.90;;;9.70;57.20;;;9.61;38.48;94476.69;5023383;28;20943;-79
2021/04/27 07:57:20;;;;;;;12.93;7.90;;;9.70;56.90;;;9.68;38.52;94472.31;5020336;28;20216;-79
2021/04/27 07:59:47;;;;;;;10.73;7.32;;;9.80;57.00;;;9.74;38.60;94476.75;4988950;28;20298;-79
2021/04/27 08:02:14;;;;;;;17.67;7.40;;;9.90;56.80;;;9.84;38.44;94478.16;5022518;28;20274;-79
2021/04/27 08:04:41;;;;;;;15.13;8.80;;;10.10;55.00;;;9.90;38.21;94482.63;5014966;28;20208;-80
2021/04/27 08:07:08;;;;;;;17.65;10.38;;;10.00;54.60;;;9.96;38.01;94478.41;5007348;28;20289;-80
2021/04/27 08:09:34;;;;;;;14.32;9.20;;;10.10;54.60;;;10.01;37.88;94474.19;5005440;28;20303;-79
2021/04/27 08:12:01;;;;;;;14.13;9.13;;;10.20;54.70;;;10.08;38.11;94471.56;5001061;28;20578;-80
2021/04/27 08:14:28;;;;;;;15.23;8.55;;;10.20;54.30;;;10.18;37.98;94477.25;5007520;28;20228;-80
2021/04/27 08:16:59;;;;;;;12.25;7.45;;;10.30;54.40;;;10.27;38.03;94469.97;4988582;28;20241;-79
2021/04/27 08:19:26;;;;;;;15.82;8.15;;;10.40;55.80;;;10.38;37.67;94474.66;5016020;28;20232;-80
2021/04/27 08:21:54;;;;;;;17.90;8.88;;;10.40;54.50;;;10.49;38.16;94475.88;4986541;28;21405;-80
2021/04/27 08:24:21;;;;;;;10.50;7.72;;;10.50;54.60;;;10.62;37.84;94472.44;5008565;28;20209;-80
2021/04/27 08:26:59;;;;;;;14.35;9.23;;;10.60;56.00;;;10.71;37.59;94462.53;5008199;28;20365;-80
2021/04/27 08:29:27;;;;;;;14.35;8.60;;;10.70;54.80;;;10.86;37.29;94465.75;4995743;28;20220;-80
2021/04/27 08:31:57;;;;;;;16.60;8.98;;;10.80;55.00;;;10.95;37.18;94460.28;4969997;28;20237;-79
2021/04/27 08:34:26;;;;;;;14.35;8.13;;;11.00;55.10;;;11.09;37.38;94469.75;4966090;28;20228;-80
2021/04/27 08:36:53;;;;;;;15.13;9.48;;;11.00;55.10;;;11.15;37.05;94461.03;4950209;28;20308;-80
2021/04/27 08:39:19;;;;;;;12.63;8.38;;;11.20;55.30;;;11.21;37.78;94462.03;4982966;28;20201;-80
2021/04/27 08:41:46;;;;;;;15.32;8.35;;;11.20;55.20;;;11.33;36.93;94464.84;4968397;28;20212;-80
2021/04/27 08:44:14;;;;;;;17.38;8.95;;;11.40;54.70;;;11.41;37.10;94469.03;4965395;28;20577;-80
2021/04/27 08:46:41;;;;;;;13.85;7.60;;;11.50;54.60;;;11.48;36.85;94461.94;4993431;28;20204;-79
2021/04/27 08:49:08;;;;;;;13.90;8.38;;;11.50;54.50;;;11.54;36.80;94459.28;5000308;28;20562;-78
2021/04/27 08:51:35;;;;;;;13.30;8.50;;;11.60;54.40;;;11.61;36.95;94459.25;4986084;28;20258;-80
2021/04/27 08:54:21;;;;;;;10.73;7.60;;;11.70;54.30;;;11.68;36.64;94452.16;4995645;28;20606;-80
2021/04/27 08:56:49;;;;;;;17.83;8.05;;;11.70;54.20;;;11.77;36.93;94451.94;5016226;28;20232;-81
2021/04/27 08:59:16;;;;;;;14.50;8.57;;;11.80;54.30;;;11.84;36.74;94453.50;4974723;28;20225;-80
2021/04/27 09:01:45;;;;;;;12.73;8.63;;;11.80;54.30;;;11.88;36.73;94442.53;4972282;28;20214;-80
2021/04/27 09:04:47;;;;;;;13.45;9.25;;;11.90;54.20;;;11.98;36.73;94448.97;4995717;28;20220;-80
2021/04/27 09:07:20;;;;;;;13.80;8.73;;;12.10;54.20;;;12.05;36.63;94437.63;4946383;28;20542;-80
2021/04/27 09:09:59;;;;;;;12.43;8.15;;;12.10;54.30;;;12.15;36.40;94443.22;5002382;28;20196;-80
2021/04/27 09:12:31;;;;;;;23.88;8.95;;;12.20;54.00;;;12.19;36.65;94436.50;4985834;28;20283;-81
2021/04/27 09:15:00;;;;;;;28.95;9.93;;;12.40;54.30;;;12.31;36.74;94441.91;4983079;28;20213;-81
2021/04/27 09:17:30;;;;;;;14.25;8.02;;;12.30;54.10;;;12.37;36.67;94422.63;4993646;28;20229;-79
2021/04/27 09:19:59;;;;;;;13.30;8.88;;;12.40;54.00;;;12.48;36.74;94434.28;4966967;28;20240;-80
2021/04/27 09:22:33;;;;;;;12.85;8.38;;;12.50;54.00;;;12.56;36.40;94441.06;4976490;28;20236;-80
2021/04/27 09:25:08;;;;;;;14.10;8.90;;;12.60;54.00;;;12.62;36.28;94429.69;5008355;28;20213;-79
2021/04/27 09:27:44;;;;;;;11.73;9.00;;;12.60;53.60;;;12.69;36.19;94424.38;4997735;28;20228;-80
2021/04/27 09:30:13;;;;;;;40.05;9.77;;;12.70;53.60;;;12.78;36.06;94423.88;4973362;28;20581;-80
2021/04/27 09:33:06;;;;;;;14.80;9.07;;;12.80;53.60;;;12.83;35.97;94425.88;4983626;28;20236;-80
2021/04/27 09:35:43;;;;;;;13.27;8.02;;;12.80;53.50;;;12.87;36.07;94415.72;4989169;28;20259;-80
2021/04/27 09:38:21;;;;;;;12.23;8.82;;;12.90;53.40;;;12.95;35.89;94418.84;4963936;28;20235;-81
2021/04/27 09:40:52;;;;;;;12.52;8.68;;;13.00;53.30;;;13.02;35.98;94421.41;4989196;28;20295;-79
2021/04/27 09:43:32;;;;;;;12.45;7.97;;;13.00;53.50;;;13.10;36.04;94407.97;4981308;28;20232;-80
2021/04/27 09:46:03;;;;;;;11.68;7.95;;;13.10;53.60;;;13.20;35.95;94410.06;4978842;28;20212;-81
2021/04/27 09:48:37;;;;;;;11.88;8.38;;;13.20;53.80;;;13.30;35.93;94401.66;4963428;28;20320;-80
2021/04/27 09:51:31;;;;;;;11.93;7.57;;;13.20;53.50;;;13.38;35.83;94409.28;5029877;28;20203;-80
2021/04/27 09:54:07;;;;;;;11.60;8.10;;;13.40;53.30;;;13.46;35.64;94408.16;5001200;28;20251;-80
2021/04/27 09:56:50;;;;;;;13.07;8.98;;;13.40;53.10;;;13.49;34.83;94402.47;4980134;28;20224;-80
2021/04/27 09:59:24;;;;;;;13.35;8.60;;;13.50;52.40;;;13.54;34.79;94410.50;4957284;28;20216;-80
2021/04/27 10:01:57;;;;;;;12.27;8.88;;;13.50;52.10;;;13.60;34.53;94408.81;4995450;28;20225;-81
2021/04/27 10:04:26;;;;;;;13.05;8.65;;;13.60;52.20;;;13.63;34.39;94402.31;5004262;28;20583;-81
2021/04/27 10:07:01;;;;;;;15.10;8.48;;;13.70;52.20;;;13.69;34.58;94394.28;5012892;28;20302;-81
2021/04/27 10:09:32;;;;;;;14.80;8.95;;;13.70;52.00;;;13.75;34.74;94382.06;5020722;28;20266;-81
2021/04/27 10:12:01;;;;;;;12.52;8.55;;;13.70;52.30;;;13.79;34.39;94390.31;5022480;28;20254;-80
2021/04/27 10:14:28;;;;;;;17.52;9.65;;;13.80;52.20;;;13.89;34.01;94398.47;5029581;28;20223;-80
2021/04/27 10:16:55;;;;;;;10.32;7.65;;;13.80;51.70;;;13.95;34.35;94389.66;5021375;28;20223;-80
2021/04/27 10:19:22;;;;;;;46.53;10.25;;;13.90;52.00;;;14.07;34.34;94398.44;5038931;28;20211;-80
2021/04/27 10:21:50;;;;;;;14.18;8.30;;;14.00;51.80;;;14.20;34.02;94400.03;5028616;28;20234;-81
2021/04/27 10:24:23;;;;;;;10.75;7.60;;;14.10;51.80;;;14.35;33.93;94386.41;5028909;28;20964;-81
2021/04/27 10:26:50;;;;;;;17.70;8.00;;;14.20;53.00;;;14.51;33.38;94382.31;5021541;28;20235;-81
2021/04/27 10:29:23;;;;;;;12.45;7.38;;;14.30;51.40;;;14.63;33.70;94387.56;5006967;28;20208;-80
2021/04/27 10:32:15;;;;;;;12.25;8.15;;;14.40;51.80;;;14.80;33.52;94393.00;5017797;28;20267;-81
2021/04/27 10:34:57;;;;;;;12.88;7.82;;;14.50;51.60;;;14.93;33.25;94372.66;4976997;28;20213;-80
2021/04/27 10:37:26;;;;;;;16.73;7.70;;;14.70;51.60;;;15.03;32.97;94376.31;5002455;28;20249;-80
2021/04/27 10:39:53;;;;;;;11.70;8.40;;;14.80;51.00;;;15.09;32.62;94357.91;5016820;28;20204;-81
2021/04/27 10:42:29;;;;;;;13.57;7.78;;;14.80;50.70;;;15.16;32.76;94361.22;5024708;28;20224;-79
2021/04/27 10:45:04;;;;;;;11.20;7.40;;;14.90;50.60;;;15.22;32.35;94360.28;4984526;28;20212;-80